createdAt,value
2023-01-29T00:00:10.189Z,16.10
2023-01-29T00:02:39.752Z,16.70
2023-01-29T00:05:26.001Z,16.20
2023-01-29T00:07:55.150Z,16.30
2023-01-29T00:10:23.324Z,16.10
2023-01-29T00:12:51.785Z,16.00
2023-01-29T00:15:20.964Z,15.60
2023-01-29T00:17:50.512Z,15.90
2023-01-29T00:20:19.396Z,15.60
2023-01-29T00:22:47.623Z,16.00
2023-01-29T00:25:15.805Z,15.80
2023-01-29T00:27:44.727Z,16.00
2023-01-29T00:30:14.048Z,15.90
2023-01-29T00:32:42.870Z,15.70
2023-01-29T00:35:13.086Z,15.70
2023-01-29T00:37:41.166Z,15.70
2023-01-29T00:40:10.758Z,16.10
2023-01-29T00:45:24.617Z,16.10
2023-01-29T00:47:52.730Z,15.60
2023-01-29T00:50:22.309Z,15.40
2023-01-29T00:52:51.870Z,15.90
2023-01-29T00:55:20.242Z,16.00
2023-01-29T00:57:48.435Z,15.70
2023-01-29T01:00:19.510Z,15.90
2023-01-29T01:03:05.276Z,15.80
2023-01-29T01:08:03.260Z,15.60
2023-01-29T01:10:32.629Z,15.60
2023-01-29T01:13:02.693Z,15.60
2023-01-29T01:15:31.671Z,15.70
2023-01-29T01:18:01.253Z,15.50
2023-01-29T01:20:31.294Z,15.90
2023-01-29T01:23:00.520Z,15.90
2023-01-29T01:25:29.161Z,15.30
2023-01-29T01:30:27.750Z,15.50
2023-01-29T01:32:56.026Z,15.70
2023-01-29T01:40:24.252Z,15.50
2023-01-29T01:42:53.947Z,15.40
2023-01-29T01:45:27.129Z,15.30
2023-01-29T01:47:59.713Z,15.50
2023-01-29T01:50:32.503Z,15.00
2023-01-29T01:53:05.764Z,15.40
2023-01-29T01:55:38.605Z,15.30
2023-01-29T01:58:11.241Z,15.40
2023-01-29T02:00:40.442Z,15.50
2023-01-29T02:06:14.683Z,15.20
2023-01-29T02:09:07.791Z,16.00
2023-01-29T02:11:37.647Z,15.00
2023-01-29T02:16:36.389Z,15.20
2023-01-29T02:19:07.537Z,15.30
2023-01-29T02:22:04.437Z,15.40
2023-01-29T02:25:09.705Z,15.60
2023-01-29T02:28:13.000Z,15.00
2023-01-29T02:30:45.741Z,15.20
2023-01-29T02:33:26.266Z,14.90
2023-01-29T02:35:59.510Z,15.50
2023-01-29T02:38:35.615Z,15.10
2023-01-29T02:41:09.076Z,15.50
2023-01-29T02:43:47.465Z,15.20
2023-01-29T02:46:23.661Z,14.60
2023-01-29T02:49:00.163Z,15.00
2023-01-29T02:51:35.531Z,15.20
2023-01-29T02:54:08.618Z,15.20
2023-01-29T02:56:41.365Z,15.20
2023-01-29T02:59:16.132Z,14.90
2023-01-29T03:01:49.162Z,14.60
2023-01-29T03:04:23.680Z,15.00
2023-01-29T03:06:56.023Z,14.70
2023-01-29T03:09:28.050Z,15.10
2023-01-29T03:12:19.817Z,15.20
2023-01-29T03:15:09.959Z,14.90
2023-01-29T03:17:42.937Z,14.60
2023-01-29T03:20:17.547Z,15.10
2023-01-29T03:22:51.798Z,15.10
2023-01-29T03:25:41.288Z,15.30
2023-01-29T03:28:30.252Z,15.20
2023-01-29T03:31:21.590Z,14.80
2023-01-29T03:33:53.719Z,14.80
2023-01-29T03:38:52.552Z,14.70
2023-01-29T03:41:26.365Z,14.70
2023-01-29T03:44:02.504Z,15.10
2023-01-29T03:46:37.772Z,15.10
2023-01-29T03:49:12.599Z,15.40
2023-01-29T03:51:52.671Z,14.70
2023-01-29T03:54:26.527Z,14.70
2023-01-29T03:57:00.756Z,15.10
2023-01-29T03:59:40.618Z,15.10
2023-01-29T04:02:15.419Z,15.10
2023-01-29T04:04:46.183Z,15.00
2023-01-29T04:07:19.080Z,14.40
2023-01-29T04:09:50.270Z,15.30
2023-01-29T04:12:23.054Z,14.60
2023-01-29T04:14:52.611Z,15.20
2023-01-29T04:17:26.682Z,15.00
2023-01-29T04:19:55.624Z,14.80
2023-01-29T04:22:27.416Z,15.20
2023-01-29T04:25:02.381Z,15.20
2023-01-29T04:27:42.114Z,14.50
2023-01-29T04:30:31.375Z,15.10
2023-01-29T04:33:12.224Z,14.50
2023-01-29T04:35:53.271Z,14.50
2023-01-29T04:38:34.903Z,15.20
2023-01-29T04:41:09.571Z,15.10
2023-01-29T04:43:43.522Z,15.00
2023-01-29T04:46:17.542Z,15.00
2023-01-29T04:48:59.700Z,15.00
2023-01-29T04:51:44.639Z,15.10
2023-01-29T04:54:21.653Z,15.00
2023-01-29T04:56:56.396Z,15.40
2023-01-29T04:59:30.487Z,15.40
2023-01-29T05:02:02.160Z,15.40
2023-01-29T05:04:35.408Z,15.80
2023-01-29T05:07:05.522Z,15.10
2023-01-29T05:09:34.079Z,15.40
2023-01-29T05:12:03.392Z,15.50
2023-01-29T05:14:35.136Z,15.50
2023-01-29T05:17:06.519Z,15.90
2023-01-29T05:19:36.049Z,15.60
2023-01-29T05:22:06.527Z,15.40
2023-01-29T05:24:36.899Z,15.60
2023-01-29T05:27:22.593Z,15.50
2023-01-29T05:29:50.721Z,15.30
2023-01-29T05:32:18.839Z,14.80
2023-01-29T05:34:48.327Z,15.60
2023-01-29T05:37:16.553Z,15.80
2023-01-29T05:39:44.669Z,15.30
2023-01-29T05:42:12.769Z,15.10
2023-01-29T05:44:40.892Z,15.50
2023-01-29T05:47:09.042Z,15.70
2023-01-29T05:49:38.743Z,15.70
2023-01-29T05:52:08.356Z,16.00
2023-01-29T05:54:36.530Z,15.80
2023-01-29T05:57:04.930Z,16.00
2023-01-29T05:59:33.016Z,15.40
2023-01-29T06:02:01.180Z,15.80
2023-01-29T06:04:29.293Z,15.50
2023-01-29T06:06:57.443Z,16.20
2023-01-29T06:09:26.888Z,16.00
2023-01-29T06:11:55.000Z,15.60
2023-01-29T06:14:23.160Z,16.30
2023-01-29T06:16:51.267Z,16.40
2023-01-29T06:19:20.769Z,16.20
2023-01-29T06:21:48.887Z,16.00
2023-01-29T06:24:17.287Z,16.20
2023-01-29T06:26:46.862Z,16.00
2023-01-29T06:29:15.084Z,16.00
2023-01-29T06:31:43.280Z,16.00
2023-01-29T06:34:11.589Z,16.00
2023-01-29T06:36:40.011Z,15.70
2023-01-29T06:39:08.131Z,15.80
2023-01-29T06:41:36.323Z,16.30
2023-01-29T06:44:06.042Z,15.90
2023-01-29T06:46:34.525Z,15.90
2023-01-29T06:49:02.655Z,16.10
2023-01-29T06:51:30.819Z,16.10
2023-01-29T06:53:59.226Z,16.00
2023-01-29T06:56:27.403Z,16.60
2023-01-29T06:58:55.568Z,16.10
2023-01-29T07:01:35.787Z,16.90
2023-01-29T07:04:04.590Z,16.10
2023-01-29T07:06:35.403Z,16.60
2023-01-29T07:09:03.988Z,16.10
2023-01-29T07:14:00.500Z,16.40
2023-01-29T07:16:30.159Z,16.10
2023-01-29T07:18:58.760Z,16.10
2023-01-29T07:21:26.848Z,16.10
2023-01-29T07:23:55.056Z,16.70
2023-01-29T07:26:23.268Z,16.50
2023-01-29T07:28:51.540Z,16.20
2023-01-29T07:31:19.753Z,16.50
2023-01-29T07:33:49.313Z,16.60
2023-01-29T07:36:17.456Z,16.40
2023-01-29T07:38:49.708Z,15.80
2023-01-29T07:41:17.783Z,16.20
2023-01-29T07:43:45.923Z,15.90
2023-01-29T07:46:14.093Z,16.30
2023-01-29T07:48:42.266Z,16.20
2023-01-29T07:51:11.713Z,16.10
2023-01-29T07:53:40.120Z,16.60
2023-01-29T07:56:08.769Z,15.90
2023-01-29T07:58:36.943Z,16.20
2023-01-29T08:01:07.615Z,16.10
2023-01-29T08:03:35.874Z,16.50
2023-01-29T08:06:04.903Z,16.70
2023-01-29T08:08:34.673Z,16.70
2023-01-29T08:11:03.477Z,16.40
2023-01-29T08:13:31.853Z,16.00
2023-01-29T08:16:02.160Z,16.30
2023-01-29T08:18:31.570Z,16.40
2023-01-29T08:21:03.230Z,16.40
2023-01-29T08:23:31.799Z,16.10
2023-01-29T08:26:03.112Z,16.50
2023-01-29T08:28:31.292Z,16.90
2023-01-29T08:30:59.739Z,16.00
2023-01-29T08:33:38.756Z,16.70
2023-01-29T08:36:08.739Z,16.50
2023-01-29T08:38:36.976Z,16.70
2023-01-29T08:41:07.325Z,16.30
2023-01-29T08:43:37.032Z,16.50
2023-01-29T08:46:06.039Z,16.60
2023-01-29T08:48:34.389Z,16.60
2023-01-29T08:51:04.481Z,16.60
2023-01-29T08:53:33.406Z,16.60
2023-01-29T08:56:01.567Z,16.60
2023-01-29T08:58:31.093Z,16.30
2023-01-29T09:01:07.095Z,17.10
2023-01-29T09:03:35.272Z,16.10
2023-01-29T09:06:03.958Z,17.10
2023-01-29T09:08:32.073Z,17.10
2023-01-29T09:11:00.701Z,17.10
2023-01-29T09:13:30.238Z,16.90
2023-01-29T09:16:00.809Z,16.90
2023-01-29T09:18:29.288Z,17.00
2023-01-29T09:20:57.981Z,17.00
2023-01-29T09:23:26.162Z,17.00
2023-01-29T09:25:54.252Z,16.90
2023-01-29T09:28:22.379Z,17.40
2023-01-29T09:30:52.056Z,17.20
2023-01-29T09:33:20.923Z,16.80
2023-01-29T09:35:49.010Z,17.40
2023-01-29T09:38:17.113Z,17.60
2023-01-29T09:40:52.653Z,17.50
2023-01-29T09:43:23.698Z,17.20
2023-01-29T09:45:57.033Z,17.60
2023-01-29T09:48:28.326Z,17.20
2023-01-29T09:51:00.991Z,17.60
2023-01-29T09:53:33.512Z,17.70
2023-01-29T09:56:05.823Z,17.50
2023-01-29T09:58:35.947Z,17.90
2023-01-29T10:01:15.070Z,17.50
2023-01-29T10:04:05.559Z,17.80
2023-01-29T10:06:46.733Z,17.30
2023-01-29T10:10:00.042Z,17.70
2023-01-29T10:12:43.992Z,17.70
2023-01-29T10:15:27.879Z,17.80
2023-01-29T10:18:10.958Z,18.00
2023-01-29T10:20:47.426Z,18.00
2023-01-29T10:23:22.922Z,17.90
2023-01-29T10:25:51.293Z,17.90
2023-01-29T10:28:24.594Z,17.90
2023-01-29T10:30:57.409Z,18.10
2023-01-29T10:33:49.344Z,18.50
2023-01-29T10:36:24.916Z,18.10
2023-01-29T10:38:53.693Z,18.40
2023-01-29T10:41:31.730Z,18.80
2023-01-29T10:44:09.536Z,18.30
2023-01-29T10:46:51.589Z,18.00
2023-01-29T10:49:39.078Z,18.60
2023-01-29T10:52:20.928Z,18.30
2023-01-29T10:55:02.698Z,18.50
2023-01-29T10:57:47.603Z,18.50
2023-01-29T11:00:22.087Z,18.10
2023-01-29T11:02:52.062Z,18.30
2023-01-29T11:05:25.253Z,18.20
2023-01-29T11:08:04.227Z,18.50
2023-01-29T11:10:37.674Z,18.30
2023-01-29T11:13:07.208Z,18.10
2023-01-29T11:15:35.894Z,18.10
2023-01-29T11:18:06.155Z,18.40
2023-01-29T11:20:35.739Z,18.30
2023-01-29T11:23:04.083Z,18.40
2023-01-29T11:25:33.652Z,18.50
2023-01-29T11:28:05.343Z,18.30
2023-01-29T11:30:35.425Z,18.30
2023-01-29T11:33:11.303Z,18.30
2023-01-29T11:35:40.782Z,18.40
2023-01-29T11:38:20.837Z,18.30
2023-01-29T11:40:49.157Z,18.50
2023-01-29T11:43:23.057Z,18.20
2023-01-29T11:45:54.530Z,18.40
2023-01-29T11:48:24.988Z,18.50
2023-01-29T11:50:57.434Z,18.50
2023-01-29T11:53:37.864Z,18.60
2023-01-29T11:56:16.157Z,18.40
2023-01-29T11:58:44.895Z,18.70
2023-01-29T12:01:14.288Z,18.30
2023-01-29T12:03:45.695Z,18.30
2023-01-29T12:06:21.444Z,18.50
2023-01-29T12:08:57.276Z,18.70
2023-01-29T12:11:31.251Z,18.80
2023-01-29T12:14:01.055Z,18.70
2023-01-29T12:16:33.334Z,18.80
2023-01-29T12:19:10.270Z,18.80
2023-01-29T12:21:46.192Z,18.80
2023-01-29T12:24:33.299Z,18.80
2023-01-29T12:27:08.812Z,18.80
2023-01-29T12:29:47.786Z,18.80
2023-01-29T12:32:33.690Z,18.70
2023-01-29T12:35:07.400Z,18.60
2023-01-29T12:37:45.782Z,18.60
2023-01-29T12:40:16.998Z,18.90
2023-01-29T12:42:50.837Z,18.60
2023-01-29T12:45:20.660Z,18.60
2023-01-29T12:47:53.209Z,18.60
2023-01-29T12:50:23.714Z,18.80
2023-01-29T12:52:57.531Z,18.70
2023-01-29T12:55:29.209Z,18.70
2023-01-29T12:57:59.890Z,18.60
2023-01-29T13:00:31.195Z,18.80
2023-01-29T13:03:05.222Z,18.60
2023-01-29T13:05:39.708Z,18.60
2023-01-29T13:08:15.607Z,18.70
2023-01-29T13:10:46.563Z,18.60
2023-01-29T13:13:21.983Z,18.40
2023-01-29T13:15:50.165Z,18.60
2023-01-29T13:18:33.184Z,18.60
2023-01-29T13:21:02.106Z,18.60
2023-01-29T13:23:35.555Z,18.50
2023-01-29T13:26:03.918Z,18.70
2023-01-29T13:28:32.510Z,18.60
2023-01-29T13:31:26.733Z,18.70
2023-01-29T13:33:59.285Z,18.30
2023-01-29T13:39:02.723Z,18.50
2023-01-29T13:41:36.824Z,18.10
2023-01-29T13:44:08.093Z,18.40
2023-01-29T13:46:42.016Z,18.60
2023-01-29T13:49:38.326Z,18.40
2023-01-29T13:52:35.414Z,18.50
2023-01-29T13:55:08.200Z,18.60
2023-01-29T13:57:52.719Z,18.60
2023-01-29T14:01:01.181Z,18.30
2023-01-29T14:04:09.936Z,18.30
2023-01-29T14:06:47.315Z,18.30
2023-01-29T14:10:03.333Z,18.50
2023-01-29T14:12:51.625Z,18.40
2023-01-29T14:15:28.820Z,18.40
2023-01-29T14:18:01.946Z,18.40
2023-01-29T14:20:50.577Z,18.60
2023-01-29T14:23:30.810Z,18.40
2023-01-29T14:26:01.228Z,18.20
2023-01-29T14:28:33.446Z,18.40
2023-01-29T14:31:02.414Z,18.50
2023-01-29T14:33:36.105Z,18.20
2023-01-29T14:36:10.140Z,18.50
2023-01-29T14:38:38.672Z,18.40
2023-01-29T14:41:15.594Z,18.40
2023-01-29T14:43:45.135Z,18.50
2023-01-29T14:46:45.405Z,18.10
2023-01-29T14:49:13.593Z,18.40
2023-01-29T14:51:46.679Z,18.30
2023-01-29T14:54:23.844Z,17.80
2023-01-29T14:57:00.043Z,18.40
2023-01-29T14:59:34.704Z,18.10
2023-01-29T15:04:40.078Z,18.40
2023-01-29T15:07:17.954Z,18.20
2023-01-29T15:09:49.086Z,18.00
2023-01-29T15:12:24.775Z,18.20
2023-01-29T15:15:04.005Z,18.20
2023-01-29T15:17:39.050Z,18.10
2023-01-29T15:20:27.090Z,18.30
2023-01-29T15:25:23.965Z,18.10
2023-01-29T15:30:29.310Z,18.10
2023-01-29T15:32:57.976Z,18.30
2023-01-29T15:35:30.384Z,18.10
2023-01-29T15:38:04.720Z,18.30
2023-01-29T15:45:33.051Z,18.00
2023-01-29T15:50:37.789Z,17.80
2023-01-29T15:53:09.300Z,18.00
2023-01-29T15:58:06.169Z,18.60
2023-01-29T16:00:35.625Z,18.20
2023-01-29T16:03:15.739Z,18.10
2023-01-29T16:08:15.952Z,17.70
2023-01-29T16:13:21.666Z,17.80
2023-01-29T16:15:59.487Z,18.20
2023-01-29T16:18:31.390Z,17.80
2023-01-29T16:21:02.552Z,17.90
2023-01-29T16:23:34.929Z,18.00
2023-01-29T16:31:04.315Z,18.10
2023-01-29T16:33:36.352Z,17.60
2023-01-29T16:36:06.589Z,17.60
2023-01-29T16:38:36.651Z,17.30
2023-01-29T16:41:08.969Z,18.00
2023-01-29T16:43:51.720Z,17.50
2023-01-29T16:46:26.523Z,17.70
2023-01-29T16:48:55.143Z,17.80
2023-01-29T16:51:26.653Z,18.40
2023-01-29T16:53:58.253Z,17.90
2023-01-29T16:56:29.123Z,17.80
2023-01-29T17:01:30.066Z,18.00
2023-01-29T17:04:03.122Z,17.60
2023-01-29T17:11:34.468Z,17.00
2023-01-29T17:16:35.317Z,17.70
2023-01-29T17:33:55.475Z,17.60
2023-01-29T17:51:20.664Z,17.80
2023-01-29T17:53:49.520Z,17.80
2023-01-29T17:56:19.631Z,17.90
2023-01-29T17:58:47.513Z,17.90
2023-01-29T18:03:44.009Z,18.10
2023-01-29T18:06:19.810Z,17.70
2023-01-29T18:08:49.350Z,17.90
2023-01-29T18:11:17.396Z,17.80
2023-01-29T18:13:45.478Z,17.80
2023-01-29T18:16:13.575Z,17.80
2023-01-29T18:18:41.651Z,18.00
2023-01-29T18:21:09.707Z,17.70
2023-01-29T18:23:37.808Z,17.50
2023-01-29T18:26:07.724Z,17.50
2023-01-29T18:28:35.802Z,17.70
2023-01-29T18:31:04.633Z,17.60
2023-01-29T18:33:34.271Z,17.40
2023-01-29T18:36:04.889Z,17.60
2023-01-29T18:38:33.331Z,17.60
2023-01-29T18:41:06.799Z,17.50
2023-01-29T18:43:34.954Z,17.70
2023-01-29T18:46:03.094Z,17.50
2023-01-29T18:48:31.532Z,17.40
2023-01-29T18:50:59.625Z,17.50
2023-01-29T18:53:28.059Z,17.50
2023-01-29T18:55:58.008Z,17.50
2023-01-29T18:58:35.151Z,17.70
2023-01-29T19:01:09.177Z,17.50
2023-01-29T19:03:37.664Z,17.50
2023-01-29T19:06:07.831Z,17.60
2023-01-29T19:08:36.166Z,17.20
2023-01-29T19:11:08.066Z,17.50
2023-01-29T19:13:38.442Z,17.40
2023-01-29T19:16:10.388Z,17.60
2023-01-29T19:18:38.787Z,17.70
2023-01-29T19:21:11.676Z,17.30
2023-01-29T19:23:40.031Z,17.40
2023-01-29T19:26:08.420Z,17.70
2023-01-29T19:28:37.862Z,17.80
2023-01-29T19:31:06.206Z,17.60
2023-01-29T19:33:34.595Z,17.60
2023-01-29T19:36:03.024Z,17.50
2023-01-29T19:38:33.521Z,17.80
2023-01-29T19:41:01.805Z,17.60
2023-01-29T19:43:31.523Z,17.70
2023-01-29T19:46:02.153Z,17.60
2023-01-29T19:48:30.704Z,18.00
2023-01-29T19:51:00.310Z,17.60
2023-01-29T19:53:29.894Z,17.20
2023-01-29T19:55:59.898Z,17.30
2023-01-29T19:58:27.868Z,17.20
2023-01-29T20:00:57.330Z,17.50
2023-01-29T20:03:27.933Z,17.60
2023-01-29T20:05:56.321Z,17.40
2023-01-29T20:08:24.960Z,17.60
2023-01-29T20:10:53.100Z,17.30
2023-01-29T20:13:21.352Z,18.10
2023-01-29T20:15:50.809Z,17.50
2023-01-29T20:18:19.592Z,17.40
2023-01-29T20:20:50.611Z,17.40
2023-01-29T20:23:31.830Z,17.60
2023-01-29T20:26:05.573Z,17.40
2023-01-29T20:28:33.660Z,17.40
2023-01-29T20:33:30.294Z,17.50
2023-01-29T20:36:02.293Z,17.50
2023-01-29T20:38:31.829Z,17.50
2023-01-29T20:41:05.200Z,17.50
2023-01-29T20:43:33.431Z,17.40
2023-01-29T20:46:01.967Z,17.50
2023-01-29T20:48:30.909Z,17.60
2023-01-29T20:51:04.949Z,17.40
2023-01-29T20:53:33.147Z,17.50
2023-01-29T20:56:03.938Z,17.50
2023-01-29T20:58:32.476Z,17.50
2023-01-29T21:01:01.002Z,17.10
2023-01-29T21:03:29.196Z,18.10
2023-01-29T21:05:59.214Z,17.40
2023-01-29T21:08:28.492Z,17.40
2023-01-29T21:10:56.598Z,17.00
2023-01-29T21:13:24.749Z,17.70
2023-01-29T21:15:52.924Z,17.10
2023-01-29T21:20:51.124Z,17.10
2023-01-29T21:23:19.183Z,17.20
2023-01-29T21:25:48.671Z,17.70
2023-01-29T21:28:17.086Z,17.70
2023-01-29T21:30:45.288Z,17.40
2023-01-29T21:33:13.371Z,17.10
2023-01-29T21:35:41.459Z,17.90
2023-01-29T21:38:09.563Z,17.30
2023-01-29T21:40:37.647Z,17.30
2023-01-29T21:43:11.790Z,17.40
2023-01-29T21:45:40.701Z,17.10
2023-01-29T21:48:09.509Z,17.10
2023-01-29T21:50:37.797Z,17.10
2023-01-29T21:53:06.055Z,17.10
2023-01-29T21:55:34.182Z,17.20
2023-01-29T21:58:02.331Z,16.60
2023-01-29T22:00:31.830Z,17.10
2023-01-29T22:03:00.008Z,16.70
2023-01-29T22:05:29.183Z,16.70
2023-01-29T22:07:57.984Z,16.80
2023-01-29T22:10:26.300Z,16.70
2023-01-29T22:12:54.616Z,16.30
2023-01-29T22:15:24.042Z,16.80
2023-01-29T22:17:53.661Z,16.80
2023-01-29T22:20:29.623Z,16.20
2023-01-29T22:22:59.474Z,16.90
2023-01-29T22:25:28.195Z,16.50
2023-01-29T22:27:56.395Z,16.70
2023-01-29T22:30:24.529Z,15.90
2023-01-29T22:32:53.955Z,16.00
2023-01-29T22:35:22.061Z,16.00
2023-01-29T22:37:50.115Z,16.20
2023-01-29T22:40:18.822Z,16.40
2023-01-29T22:42:46.997Z,16.30
2023-01-29T22:45:15.210Z,16.70
2023-01-29T22:47:43.297Z,16.00
2023-01-29T22:50:13.833Z,15.90
2023-01-29T22:52:42.788Z,15.50
2023-01-29T22:55:13.000Z,16.40
2023-01-29T22:57:41.403Z,16.30
2023-01-29T23:00:12.805Z,16.00
2023-01-29T23:02:40.880Z,16.20
2023-01-29T23:05:09.449Z,16.20
2023-01-29T23:07:38.928Z,16.00
2023-01-29T23:10:08.071Z,16.10
2023-01-29T23:12:36.173Z,16.10
2023-01-29T23:15:04.448Z,16.10
2023-01-29T23:17:32.557Z,16.00
2023-01-29T23:20:00.657Z,16.00
2023-01-29T23:24:58.476Z,15.90
2023-01-29T23:27:25.616Z,16.90
2023-01-29T23:32:22.560Z,16.10
2023-01-29T23:34:50.641Z,16.00
2023-01-29T23:37:18.752Z,15.60
2023-01-29T23:39:46.818Z,16.10
2023-01-29T23:42:16.281Z,16.00
2023-01-29T23:44:44.347Z,15.70
2023-01-29T23:47:12.734Z,16.00
2023-01-29T23:49:40.806Z,16.40
2023-01-29T23:52:08.925Z,15.80
2023-01-29T23:54:37.038Z,15.90
2023-01-29T23:57:05.227Z,15.90
2023-01-29T23:59:34.757Z,15.30
